Time;durP1;ratioP1;P1;durP2;ratioP2;P2;SDS_P1;SDS_P2;PMS_P1;PMS_P2;Temp;Humidity;BMP_temperature;BMP_pressure;BME280_temperature;BME280_humidity;BME280_pressure;Samples;Min_cycle;Max_cycle;Signal;HPM_P1;HPM_P2
2024/01/09 00:00:18;;;;;;;5.78;4.45;;;;;;;1.90;28.69;100576.41;7774191;32;40781;-82
2024/01/09 00:04:35;;;;;;;9.68;4.95;;;;;;;1.63;29.29;100576.19;7765660;32;38613;-82
2024/01/09 00:08:51;;;;;;;8.48;5.07;;;;;;;1.45;30.37;100590.09;7780732;32;36737;-82
2024/01/09 00:13:07;;;;;;;6.28;4.70;;;;;;;1.26;29.27;100587.03;7765803;32;39280;-81
2024/01/09 00:17:24;;;;;;;9.38;5.32;;;;;;;1.86;29.15;100592.09;7765364;32;39946;-81
2024/01/09 00:21:40;;;;;;;7.37;4.80;;;;;;;1.64;30.05;100594.00;7791721;32;38552;-81
2024/01/09 00:25:56;;;;;;;7.47;4.90;;;;;;;1.70;28.47;100598.59;7792669;32;37229;-82
2024/01/09 00:30:13;;;;;;;8.23;5.10;;;;;;;1.58;28.72;100605.50;7775440;32;39288;-81
2024/01/09 00:34:29;;;;;;;7.53;4.80;;;;;;;1.38;29.80;100611.53;7765335;32;39559;-82
2024/01/09 00:38:45;;;;;;;8.05;5.05;;;;;;;1.57;28.19;100619.97;7772477;32;38670;-81
2024/01/09 00:43:02;;;;;;;5.18;4.50;;;;;;;1.75;27.92;100612.28;7791852;32;38002;-81
2024/01/09 00:47:18;;;;;;;5.37;4.60;;;;;;;1.72;28.53;100620.72;7792382;32;38823;-81
2024/01/09 00:51:34;;;;;;;6.40;4.37;;;;;;;1.50;28.65;100626.13;7766820;32;40913;-82
2024/01/09 00:55:51;;;;;;;8.00;4.45;;;;;;;1.79;29.01;100640.44;7765089;32;37551;-80
2024/01/09 01:00:08;;;;;;;7.12;4.68;;;;;;;1.65;28.64;100633.28;7780977;32;37538;-81
2024/01/09 01:04:24;;;;;;;6.50;4.47;;;;;;;1.63;27.86;100632.66;7791855;32;40021;-82
2024/01/09 01:08:40;;;;;;;9.45;4.60;;;;;;;1.74;28.73;100637.50;7785421;32;40800;-81
2024/01/09 01:12:57;;;;;;;6.18;4.62;;;;;;;1.61;28.55;100640.91;7787983;32;37529;-82
2024/01/09 01:17:13;;;;;;;7.30;4.50;;;;;;;1.58;28.29;100648.53;7791983;32;37871;-82
2024/01/09 01:21:29;;;;;;;7.90;4.60;;;;;;;1.36;28.52;100659.25;7767450;32;40284;-81
2024/01/09 01:25:46;;;;;;;9.05;4.60;;;;;;;1.52;27.77;100666.25;7764687;32;39851;-83
2024/01/09 01:30:02;;;;;;;7.75;4.62;;;;;;;1.14;28.17;100666.44;7778869;32;37837;-82
2024/01/09 01:34:18;;;;;;;8.95;4.57;;;;;;;1.03;27.59;100677.66;7791770;32;36992;-83
2024/01/09 01:38:35;;;;;;;6.57;4.53;;;;;;;1.26;27.22;100672.13;7786390;32;40603;-82
2024/01/09 01:42:54;;;;;;;5.40;4.22;;;;;;;1.56;28.23;100683.66;7764364;32;39888;-82
2024/01/09 01:47:13;;;;;;;7.03;4.32;;;;;;;1.47;28.68;100680.25;7764214;32;37545;-82
2024/01/09 01:51:30;;;;;;;5.95;4.53;;;;;;;0.89;27.37;100682.84;7787516;32;37000;-82
2024/01/09 01:55:46;;;;;;;10.60;4.32;;;;;;;1.39;27.77;100683.06;7791256;32;40062;-82
2024/01/09 02:00:03;;;;;;;6.28;4.32;;;;;;;1.11;27.88;100680.25;7776821;32;39954;-81
2024/01/09 02:04:21;;;;;;;8.32;4.65;;;;;;;1.35;27.43;100671.03;7762553;32;38539;-81
2024/01/09 02:08:38;;;;;;;6.25;4.35;;;;;;;1.15;27.61;100669.97;7768359;32;37883;-84
2024/01/09 02:12:55;;;;;;;5.35;4.00;;;;;;;1.16;27.64;100671.63;7789630;32;37784;-81
2024/01/09 02:17:12;;;;;;;6.90;4.18;;;;;;;1.36;26.96;100672.69;7793279;32;40455;-82
2024/01/09 02:21:29;;;;;;;5.15;4.00;;;;;;;1.06;28.01;100674.59;7770743;32;37911;-82
2024/01/09 02:25:45;;;;;;;4.78;4.10;;;;;;;0.89;27.08;100677.47;7767651;32;37108;-82
2024/01/09 02:30:02;;;;;;;6.30;3.78;;;;;;;1.30;27.54;100681.50;7775217;32;39850;-82
2024/01/09 02:34:19;;;;;;;6.22;4.32;;;;;;;1.59;26.59;100688.66;7766536;32;40001;-82
2024/01/09 02:38:38;;;;;;;5.00;3.92;;;;;;;1.04;26.32;100685.53;7770481;32;37854;-81
2024/01/09 02:42:55;;;;;;;6.40;4.20;;;;;;;1.27;25.99;100690.75;7793953;32;37673;-81
2024/01/09 02:47:11;;;;;;;6.97;4.05;;;;;;;1.27;27.00;100687.25;7768698;32;39796;-81
2024/01/09 02:51:27;;;;;;;6.22;4.05;;;;;;;1.36;26.56;100693.34;7788677;32;40785;-81
2024/01/09 02:55:44;;;;;;;7.75;4.55;;;;;;;1.22;25.69;100692.34;7793679;32;38863;-82
2024/01/09 03:00:00;;;;;;;6.82;4.30;;;;;;;0.80;26.06;100688.53;7780374;32;37814;-82
2024/01/09 03:04:16;;;;;;;6.05;4.35;;;;;;;1.41;25.74;100690.94;7766596;32;40034;-81
2024/01/09 03:08:32;;;;;;;6.07;4.57;;;;;;;1.13;26.16;100703.19;7769394;32;39942;-82
2024/01/09 03:12:49;;;;;;;4.70;3.67;;;;;;;0.97;25.86;100699.88;7780536;32;37817;-82
2024/01/09 03:17:05;;;;;;;5.78;4.03;;;;;;;1.22;25.32;100703.09;7766029;32;37804;-81
2024/01/09 03:21:21;;;;;;;6.50;4.62;;;;;;;0.93;25.85;100711.03;7787212;32;39366;-81
2024/01/09 03:25:37;;;;;;;6.25;4.20;;;;;;;1.21;26.76;100712.16;7792862;32;40067;-82
2024/01/09 03:29:54;;;;;;;6.25;4.25;;;;;;;0.87;26.01;100718.97;7781331;32;37935;-82
2024/01/09 03:34:10;;;;;;;5.45;4.10;;;;;;;1.30;26.18;100716.44;7766022;32;37693;-81
2024/01/09 03:38:26;;;;;;;4.95;4.03;;;;;;;0.92;26.52;100719.25;7767892;32;39358;-82
2024/01/09 03:42:43;;;;;;;6.45;4.57;;;;;;;1.26;24.43;100720.50;7793091;32;40479;-82
2024/01/09 03:46:59;;;;;;;6.55;4.55;;;;;;;0.90;25.37;100726.66;7792795;32;37535;-81
2024/01/09 03:51:15;;;;;;;6.35;4.20;;;;;;;1.31;25.19;100737.75;7781853;32;37102;-81
2024/01/09 03:55:32;;;;;;;7.60;4.18;;;;;;;0.95;25.62;100735.00;7792842;32;39985;-81
2024/01/09 03:59:48;;;;;;;5.62;4.12;;;;;;;1.32;25.61;100738.56;7782145;32;40781;-82
2024/01/09 04:04:04;;;;;;;5.40;4.25;;;;;;;1.34;25.46;100747.25;7764312;32;38714;-81
2024/01/09 04:08:21;;;;;;;6.22;4.40;;;;;;;0.87;26.70;100753.88;7766326;32;37796;-82
2024/01/09 04:12:37;;;;;;;5.62;4.32;;;;;;;1.12;26.17;100759.78;7792615;32;38976;-82
2024/01/09 04:16:53;;;;;;;5.32;4.00;;;;;;;1.02;25.99;100773.50;7792502;32;40801;-81
2024/01/09 04:21:10;;;;;;;5.47;3.90;;;;;;;1.21;25.64;100777.50;7773309;32;38591;-82
2024/01/09 04:25:26;;;;;;;6.47;4.45;;;;;;;0.82;25.17;100780.44;7765504;32;37021;-82
2024/01/09 04:29:42;;;;;;;4.90;4.10;;;;;;;1.23;24.67;100782.69;7777358;32;39351;-82
2024/01/09 04:33:59;;;;;;;7.22;4.62;;;;;;;1.20;24.48;100783.06;7792560;32;40737;-81
2024/01/09 04:38:15;;;;;;;6.18;4.03;;;;;;;0.91;25.26;100787.38;7789004;32;37962;-82
2024/01/09 04:42:32;;;;;;;6.65;4.20;;;;;;;1.15;25.31;100793.50;7765187;32;37934;-82
2024/01/09 04:46:48;;;;;;;6.53;4.25;;;;;;;1.14;24.37;100806.13;7765293;32;39339;-81
2024/01/09 04:51:05;;;;;;;6.62;4.20;;;;;;;1.03;25.00;100796.66;7785485;32;40900;-81
2024/01/09 04:55:21;;;;;;;6.07;4.28;;;;;;;1.08;24.98;100794.25;7792360;32;38733;-82
2024/01/09 04:59:39;;;;;;;5.53;3.85;;;;;;;0.75;25.15;100805.31;7790307;32;37009;-81
2024/01/09 05:03:56;;;;;;;5.05;3.92;;;;;;;1.35;25.19;100804.53;7792284;32;38492;-81
2024/01/09 05:08:13;;;;;;;6.28;4.10;;;;;;;1.43;25.85;100802.59;7790227;32;39952;-81
2024/01/09 05:12:29;;;;;;;5.28;4.60;;;;;;;1.22;25.32;100810.56;7764902;32;38391;-81
2024/01/09 05:16:45;;;;;;;6.65;4.72;;;;;;;1.19;25.42;100816.28;7764695;32;37829;-81
2024/01/09 05:21:02;;;;;;;6.78;3.92;;;;;;;0.80;26.96;100828.12;7774357;32;39330;-81
2024/01/09 05:25:18;;;;;;;5.47;4.35;;;;;;;0.54;26.42;100837.41;7764598;32;40839;-81
2024/01/09 05:29:38;;;;;;;5.28;4.10;;;;;;;0.87;25.87;100839.78;7774481;32;38244;-81
2024/01/09 05:33:55;;;;;;;7.65;4.05;;;;;;;0.97;26.01;100845.75;7791975;32;38298;-82
2024/01/09 05:38:11;;;;;;;6.53;3.97;;;;;;;1.18;25.03;100853.06;7788032;32;39809;-82
2024/01/09 05:42:34;;;;;;;5.50;3.95;;;;;;;1.09;24.81;100852.31;7779477;32;40647;-81
2024/01/09 05:46:50;;;;;;;4.28;3.72;;;;;;;0.82;25.21;100855.62;7791454;32;37810;-82
2024/01/09 05:51:06;;;;;;;5.03;4.10;;;;;;;0.70;24.82;100874.81;7767692;32;37865;-82
2024/01/09 05:55:23;;;;;;;6.10;4.62;;;;;;;0.88;25.30;100879.03;7764371;32;38833;-82
2024/01/09 05:59:39;;;;;;;6.75;4.40;;;;;;;0.69;25.70;100881.22;7776364;32;40559;-82
2024/01/09 06:03:56;;;;;;;5.78;4.22;;;;;;;0.93;25.09;100893.59;7791092;32;38700;-81
2024/01/09 06:08:12;;;;;;;4.43;3.90;;;;;;;0.91;25.19;100886.72;7787670;32;36981;-82
2024/01/09 06:12:28;;;;;;;5.37;4.00;;;;;;;1.02;24.88;100901.56;7763682;32;40001;-82
2024/01/09 06:16:45;;;;;;;4.00;3.60;;;;;;;1.14;25.18;100905.50;7762470;32;40775;-82
2024/01/09 06:21:01;;;;;;;5.47;3.97;;;;;;;1.33;25.40;100908.66;7782955;32;37519;-83
2024/01/09 06:25:17;;;;;;;5.18;4.43;;;;;;;1.46;24.40;100908.88;7790451;32;37199;-82
2024/01/09 06:29:34;;;;;;;6.30;4.25;;;;;;;1.58;26.13;100911.94;7778972;32;39287;-81
2024/01/09 06:33:50;;;;;;;4.57;3.87;;;;;;;1.49;26.15;100917.38;7763178;32;39927;-82
2024/01/09 06:38:07;;;;;;;5.03;4.30;;;;;;;1.70;25.25;100926.56;7764666;32;37060;-81
2024/01/09 06:42:23;;;;;;;7.37;4.00;;;;;;;1.58;24.55;100933.44;7790168;32;36794;-82
2024/01/09 06:46:40;;;;;;;12.60;4.50;;;;;;;1.41;25.75;100940.84;7790083;32;39371;-81
2024/01/09 06:50:56;;;;;;;6.47;3.97;;;;;;;1.34;25.17;100943.41;7778901;32;39912;-82
2024/01/09 06:55:12;;;;;;;5.62;4.12;;;;;;;1.60;25.30;100953.72;7789149;32;37913;-81
2024/01/09 06:59:29;;;;;;;6.18;4.57;;;;;;;1.58;24.80;100965.69;7779271;32;37329;-82
2024/01/09 07:03:45;;;;;;;8.02;4.20;;;;;;;1.55;25.88;100976.81;7766326;32;39338;-81
2024/01/09 07:08:03;;;;;;;5.60;4.45;;;;;;;1.55;25.40;100979.50;7766794;32;39973;-81
2024/01/09 07:12:19;;;;;;;5.85;4.30;;;;;;;1.54;25.66;100983.22;7790883;32;38459;-80
2024/01/09 07:16:36;;;;;;;8.27;4.65;;;;;;;1.81;26.06;100989.81;7766114;32;37108;-81
2024/01/09 07:20:54;;;;;;;8.27;4.85;;;;;;;1.62;26.39;101004.62;7788408;32;40085;-81
2024/01/09 07:25:11;;;;;;;7.25;4.22;;;;;;;1.69;26.74;101010.94;7793136;32;40593;-82
2024/01/09 07:29:27;;;;;;;5.00;3.97;;;;;;;1.83;28.87;101018.19;7791515;32;37958;-81
2024/01/09 07:33:43;;;;;;;18.42;4.78;;;;;;;2.05;24.42;101015.59;7792866;32;37167;-82
2024/01/09 07:38:00;;;;;;;5.62;4.05;;;;;;;2.12;25.68;101021.06;7789881;32;38995;-82
2024/01/09 07:42:16;;;;;;;5.22;3.95;;;;;;;1.22;27.12;101026.28;7765910;32;39849;-82
2024/01/09 07:46:33;;;;;;;6.80;4.55;;;;;;;1.98;27.05;101028.12;7769998;32;37882;-83
2024/01/09 07:50:50;;;;;;;5.32;3.50;;;;;;;2.16;27.38;101028.59;7771376;32;37176;-82
2024/01/09 07:55:07;;;;;;;4.45;3.70;;;;;;;2.45;26.29;101026.91;7765882;32;39054;-83
2024/01/09 07:59:24;;;;;;;4.90;3.60;;;;;;;2.13;25.55;101036.19;7777884;32;40796;-83
2024/01/09 08:03:41;;;;;;;6.85;4.22;;;;;;;2.35;25.46;101045.19;7793550;32;37901;-83
2024/01/09 08:07:57;;;;;;;4.95;3.78;;;;;;;2.56;24.72;101056.03;7788928;32;37311;-83
2024/01/09 08:12:13;;;;;;;5.53;3.78;;;;;;;2.73;24.29;101050.44;7773927;32;39337;-82
2024/01/09 08:16:30;;;;;;;3.90;3.40;;;;;;;2.32;24.01;101067.09;7765344;32;39956;-85
2024/01/09 08:20:46;;;;;;;9.65;3.70;;;;;;;2.16;25.33;101070.81;7759659;32;38014;-84
2024/01/09 08:25:02;;;;;;;5.35;3.50;;;;;;;2.67;24.34;101075.41;7764618;32;36848;-85
2024/01/09 08:29:19;;;;;;;4.22;2.92;;;;;;;2.70;24.47;101073.16;7776723;32;39794;-77
2024/01/09 08:33:36;;;;;;;5.43;3.50;;;;;;;2.70;29.14;101083.12;7791869;32;40196;-83
2024/01/09 08:37:52;;;;;;;5.57;3.70;;;;;;;2.88;24.89;101088.94;7791335;32;37881;-83
2024/01/09 08:42:08;;;;;;;6.15;3.72;;;;;;;3.07;24.33;101092.03;7791091;32;36732;-84
2024/01/09 08:46:25;;;;;;;4.60;3.30;;;;;;;2.72;23.15;101097.22;7792397;32;39071;-84
2024/01/09 08:50:41;;;;;;;6.43;3.62;;;;;;;2.85;23.28;101092.00;7779532;32;39918;-84
2024/01/09 08:54:58;;;;;;;7.60;3.83;;;;;;;2.82;24.80;101092.38;7791145;32;38666;-84
2024/01/09 08:59:14;;;;;;;4.93;3.37;;;;;;;2.73;24.24;101107.00;7791519;32;36558;-83
2024/01/09 09:03:30;;;;;;;5.55;4.00;;;;;;;2.66;24.36;101108.72;7790869;32;39175;-82
2024/01/09 09:07:47;;;;;;;5.70;3.67;;;;;;;3.08;22.87;101107.19;7790287;32;40554;-83
2024/01/09 09:12:03;;;;;;;6.55;3.37;;;;;;;3.28;23.22;101107.41;7784817;32;37965;-82
2024/01/09 09:16:20;;;;;;;6.45;3.70;;;;;;;3.29;23.84;101115.28;7779542;32;37077;-81
2024/01/09 09:20:36;;;;;;;4.65;3.37;;;;;;;3.05;22.69;101107.56;7792054;32;39238;-82
2024/01/09 09:24:56;;;;;;;4.87;3.40;;;;;;;3.42;22.04;101113.78;7791402;32;40767;-83
2024/01/09 09:29:13;;;;;;;5.35;3.83;;;;;;;3.28;23.72;101112.81;7784849;32;37800;-82
2024/01/09 09:33:46;;;;;;;8.43;3.80;;;;;;;3.32;23.56;101109.50;7763660;32;37924;-81
2024/01/09 09:38:03;;;;;;;5.18;3.67;;;;;;;3.53;22.11;101110.53;7763195;32;39930;-82
2024/01/09 09:42:25;;;;;;;5.45;3.75;;;;;;;3.85;23.07;101111.06;7761994;32;39864;-82
2024/01/09 09:46:41;;;;;;;6.28;3.62;;;;;;;3.81;22.45;101117.84;7761259;32;37482;-82
2024/01/09 09:50:59;;;;;;;7.22;3.87;;;;;;;4.12;23.02;101120.16;7763473;32;37795;-82
2024/01/09 09:55:16;;;;;;;6.82;3.72;;;;;;;4.33;23.98;101122.00;7763000;32;39924;-82
2024/01/09 09:59:33;;;;;;;6.15;3.75;;;;;;;3.98;22.28;101124.63;7764166;32;40814;-82
2024/01/09 10:04:10;;;;;;;7.03;3.85;;;;;;;4.46;22.16;101126.62;7764002;32;37567;-82
2024/01/09 10:08:28;;;;;;;6.60;3.58;;;;;;;4.67;21.55;101128.41;7760607;32;37789;-82
2024/01/09 10:12:45;;;;;;;5.70;3.62;;;;;;;4.56;21.19;101126.28;7764070;32;39260;-82
2024/01/09 10:17:03;;;;;;;4.40;3.20;;;;;;;4.43;23.03;101122.47;7762494;32;39575;-82
2024/01/09 10:21:20;;;;;;;4.10;3.17;;;;;;;5.10;22.05;101125.47;7763731;32;37850;-82
2024/01/09 10:25:36;;;;;;;5.07;3.60;;;;;;;5.10;22.16;101121.94;7763486;32;37795;-82
2024/01/09 10:29:52;;;;;;;6.62;3.45;;;;;;;5.26;22.25;101126.97;7762374;32;40109;-83
2024/01/09 10:34:09;;;;;;;6.80;3.35;;;;;;;5.02;21.11;101126.47;7763531;32;39872;-82
2024/01/09 10:38:28;;;;;;;5.00;3.62;;;;;;;5.51;21.28;101123.69;7766457;32;37517;-82
2024/01/09 10:42:46;;;;;;;4.50;3.28;;;;;;;5.67;21.80;101127.88;7767007;32;38322;-82
2024/01/09 10:47:03;;;;;;;7.18;3.37;;;;;;;5.86;20.52;101129.75;7766863;32;39294;-82
2024/01/09 10:51:20;;;;;;;8.90;3.28;;;;;;;6.25;21.00;101136.22;7765727;32;41442;-82
2024/01/09 10:55:36;;;;;;;5.37;2.97;;;;;;;6.61;20.68;101134.09;7766695;32;38688;-82
2024/01/09 10:59:54;;;;;;;4.28;3.00;;;;;;;7.41;21.37;101128.31;7766729;32;36987;-82
2024/01/09 11:04:11;;;;;;;9.52;3.25;;;;;;;7.09;19.18;101126.41;7766620;32;40072;-82
2024/01/09 11:08:27;;;;;;;5.37;3.12;;;;;;;7.98;19.33;101122.88;7766620;32;39755;-82
2024/01/09 11:12:46;;;;;;;6.28;3.10;;;;;;;8.02;19.13;101118.66;7765442;32;37812;-82
2024/01/09 11:17:03;;;;;;;5.12;3.42;;;;;;;8.25;18.63;101115.34;7765249;32;37012;-82
2024/01/09 11:21:26;;;;;;;5.78;3.17;;;;;;;8.37;18.05;101118.16;7765291;32;40193;-82
2024/01/09 11:25:49;;;;;;;5.28;2.78;;;;;;;8.64;17.90;101115.97;7766260;32;40795;-82
2024/01/09 11:30:06;;;;;;;3.58;2.58;;;;;;;8.82;17.91;101115.16;7765154;32;38563;-82
2024/01/09 11:34:27;;;;;;;6.80;3.10;;;;;;;9.16;18.87;101123.75;7766284;32;36862;-82
2024/01/09 11:38:43;;;;;;;4.60;2.62;;;;;;;9.28;18.45;101121.91;7766355;32;40913;-82
2024/01/09 11:43:00;;;;;;;3.60;2.50;;;;;;;9.08;18.62;101122.16;7766085;32;39960;-82
2024/01/09 11:47:16;;;;;;;4.78;2.67;;;;;;;9.36;18.28;101124.28;7765855;32;37777;-82
2024/01/09 11:51:33;;;;;;;7.35;3.20;;;;;;;8.97;16.38;101126.50;7765944;32;37934;-82
2024/01/09 11:55:51;;;;;;;5.35;3.00;;;;;;;8.76;17.13;101124.22;7766006;32;40235;-82
2024/01/09 12:00:09;;;;;;;5.32;2.85;;;;;;;9.33;17.37;101127.47;7766105;32;39739;-82
2024/01/09 12:04:26;;;;;;;4.90;2.75;;;;;;;9.37;18.42;101120.50;7766025;32;37765;-82
2024/01/09 12:08:42;;;;;;;5.05;2.70;;;;;;;9.96;16.77;101112.47;7765878;32;37036;-82
2024/01/09 12:13:05;;;;;;;5.40;2.85;;;;;;;9.58;17.39;101110.16;7764675;32;39906;-82
2024/01/09 12:17:24;;;;;;;4.97;2.77;;;;;;;9.52;16.88;101117.38;7772398;32;40017;-81
2024/01/09 12:21:40;;;;;;;5.35;2.80;;;;;;;10.30;16.83;101106.44;7783406;32;38854;-81
2024/01/09 12:25:56;;;;;;;4.40;2.67;;;;;;;10.72;16.76;101103.56;7792694;32;37874;-80
2024/01/09 12:30:13;;;;;;;5.15;2.80;;;;;;;10.43;15.35;101106.22;7792545;32;38954;-81
2024/01/09 12:34:30;;;;;;;7.00;3.40;;;;;;;10.42;16.75;101103.75;7791444;32;40010;-81
2024/01/09 12:38:47;;;;;;;7.45;2.80;;;;;;;10.95;16.55;101104.56;7792591;32;38526;-82
2024/01/09 12:43:13;;;;;;;8.90;3.00;;;;;;;10.09;17.79;101116.03;7792513;32;37109;-82
2024/01/09 12:47:30;;;;;;;6.87;3.20;;;;;;;10.83;16.81;101110.06;7792542;32;40001;-81
2024/01/09 12:51:47;;;;;;;6.50;2.90;;;;;;;11.08;15.33;101112.47;7792502;32;39795;-82
2024/01/09 12:56:15;;;;;;;5.78;2.72;;;;;;;11.23;16.58;101120.97;7791220;32;37554;-82
2024/01/09 13:00:32;;;;;;;4.40;2.30;;;;;;;11.48;16.83;101121.69;7790649;32;37004;-82
2024/01/09 13:04:49;;;;;;;4.60;2.75;;;;;;;11.99;16.29;101123.41;7792302;32;39282;-82
2024/01/09 13:09:09;;;;;;;5.37;2.55;;;;;;;11.86;14.65;101120.97;7792160;32;40969;-81
2024/01/09 13:13:25;;;;;;;5.40;2.50;;;;;;;12.34;14.94;101119.56;7792556;32;38392;-82
2024/01/09 13:17:41;;;;;;;5.62;2.72;;;;;;;12.01;14.49;101126.72;7791910;32;37882;-77
2024/01/09 13:21:58;;;;;;;3.47;2.30;;;;;;;12.58;14.19;101119.38;7792292;32;39400;-82
2024/01/09 13:26:35;;;;;;;5.00;2.50;;;;;;;13.25;15.09;101120.19;7791412;32;40184;-81
2024/01/09 13:30:51;;;;;;;4.30;2.60;;;;;;;13.86;15.25;101123.53;7791788;32;37607;-81
2024/01/09 13:35:10;;;;;;;6.20;2.45;;;;;;;14.41;14.37;101124.22;7790638;32;37110;-81
2024/01/09 13:39:28;;;;;;;5.53;2.50;;;;;;;14.41;13.66;101120.66;7791695;32;39380;-81
2024/01/09 13:43:45;;;;;;;4.97;2.72;;;;;;;14.81;12.74;101122.84;7791505;32;39887;-81
2024/01/09 13:48:02;;;;;;;4.62;2.40;;;;;;;16.26;12.60;101112.88;7791530;32;37849;-76
2024/01/09 13:52:19;;;;;;;3.45;2.10;;;;;;;19.04;10.78;101098.75;7790417;32;37033;-79
2024/01/09 13:56:35;;;;;;;3.75;2.20;;;;;;;22.55;8.33;101093.28;7791505;32;39498;-79
2024/01/09 14:00:51;;;;;;;6.37;2.53;;;;;;;23.44;6.50;101093.97;7791311;32;40021;-85
2024/01/09 14:05:08;;;;;;;4.97;2.42;;;;;;;25.05;6.70;101102.00;7791126;32;37877;-84
2024/01/09 14:09:25;;;;;;;3.90;2.00;;;;;;;26.02;5.37;101102.88;7791148;32;36860;-85
2024/01/09 14:13:42;;;;;;;6.12;2.62;;;;;;;26.20;5.75;101098.72;7794117;32;40147;-85
2024/01/09 14:17:58;;;;;;;4.53;2.37;;;;;;;25.92;6.33;101101.28;7794058;32;40869;-85
2024/01/09 14:22:15;;;;;;;4.35;2.53;;;;;;;25.35;5.41;101121.53;7794408;32;37517;-85
2024/01/09 14:26:31;;;;;;;5.55;2.45;;;;;;;25.35;6.52;101113.94;7793880;32;37251;-84
2024/01/09 14:30:48;;;;;;;4.00;2.40;;;;;;;24.87;5.52;101118.84;7794008;32;39284;-85
2024/01/09 14:35:06;;;;;;;5.57;2.58;;;;;;;24.64;6.71;101128.66;7794213;32;40185;-84
2024/01/09 14:39:23;;;;;;;4.10;2.22;;;;;;;23.98;6.66;101132.59;7792226;32;37829;-85
2024/01/09 14:43:40;;;;;;;5.72;2.50;;;;;;;23.43;6.83;101134.06;7793479;32;36726;-79
2024/01/09 14:47:58;;;;;;;4.50;2.53;;;;;;;22.53;8.12;101138.06;7793709;32;40146;-85
2024/01/09 14:52:15;;;;;;;6.93;2.45;;;;;;;21.50;7.97;101139.78;7793650;32;41306;-84
2024/01/09 14:56:31;;;;;;;6.20;2.95;;;;;;;20.65;8.01;101153.22;7793489;32;38481;-85
2024/01/09 15:00:47;;;;;;;4.15;2.28;;;;;;;18.50;9.67;101163.44;7793408;32;36878;-84
2024/01/09 15:05:04;;;;;;;15.00;7.60;;;;;;;15.32;12.53;101181.78;7793544;32;40150;-84
2024/01/09 15:09:20;;;;;;;7.12;3.72;;;;;;;13.54;14.52;101197.50;7793424;32;40844;-84
2024/01/09 15:13:37;;;;;;;7.40;3.17;;;;;;;12.25;16.52;101197.66;7793406;32;37597;-84
2024/01/09 15:17:54;;;;;;;5.32;3.22;;;;;;;11.24;17.80;101207.22;7793243;32;37766;-84
2024/01/09 15:22:12;;;;;;;5.85;3.25;;;;;;;10.08;19.19;101213.28;7793029;32;39010;-84
2024/01/09 15:26:29;;;;;;;5.30;3.15;;;;;;;9.19;20.00;101215.78;7793186;32;40523;-84
2024/01/09 15:30:45;;;;;;;8.13;3.62;;;;;;;8.32;21.38;101232.12;7793137;32;37556;-84
2024/01/09 15:35:01;;;;;;;5.68;3.00;;;;;;;7.52;22.93;101239.72;7793212;32;37153;-84
2024/01/09 15:39:20;;;;;;;5.40;3.20;;;;;;;7.07;23.21;101242.41;7793317;32;38269;-83
2024/01/09 15:43:36;;;;;;;6.57;3.33;;;;;;;6.87;24.39;101244.31;7792932;32;39874;-84
2024/01/09 15:47:54;;;;;;;5.90;3.60;;;;;;;6.30;25.01;101255.62;7792894;32;37551;-84
2024/01/09 15:52:11;;;;;;;7.82;3.42;;;;;;;6.01;25.47;101259.53;7793031;32;36107;-82
2024/01/09 15:56:28;;;;;;;6.00;3.42;;;;;;;5.54;26.87;101259.38;7793029;32;39391;-83
2024/01/09 16:00:45;;;;;;;4.85;3.62;;;;;;;5.31;26.84;101265.09;7792869;32;40061;-83
2024/01/09 16:05:02;;;;;;;6.85;3.85;;;;;;;4.98;27.48;101267.63;7792554;32;37989;-83
2024/01/09 16:09:21;;;;;;;6.87;3.65;;;;;;;4.70;27.83;101266.59;7792641;32;37879;-83
2024/01/09 16:13:41;;;;;;;7.70;3.85;;;;;;;4.60;28.67;101268.81;7792872;32;39209;-83
2024/01/09 16:18:01;;;;;;;7.90;4.10;;;;;;;4.41;28.51;101269.50;7792534;32;40821;-82
2024/01/09 16:22:20;;;;;;;6.43;4.55;;;;;;;4.06;28.19;101288.28;7792510;32;37979;-83
2024/01/09 16:26:39;;;;;;;9.05;4.87;;;;;;;4.11;28.50;101286.69;7792747;32;37119;-83
2024/01/09 16:30:56;;;;;;;9.40;5.25;;;;;;;3.70;27.39;101289.12;7792637;32;39365;-83
2024/01/09 16:35:12;;;;;;;10.82;4.97;;;;;;;3.84;27.13;101300.91;7791525;32;40547;-84
2024/01/09 16:39:29;;;;;;;7.30;4.25;;;;;;;3.87;25.95;101295.16;7792270;32;37543;-82
2024/01/09 16:43:47;;;;;;;6.75;4.60;;;;;;;3.62;29.43;101300.03;7792407;32;36717;-81
2024/01/09 16:48:04;;;;;;;11.50;5.55;;;;;;;3.42;29.56;101297.94;7792254;32;39296;-81
2024/01/09 16:52:20;;;;;;;13.10;6.90;;;;;;;3.63;28.12;101305.25;7791955;32;40793;-81
2024/01/09 16:56:39;;;;;;;15.77;8.20;;;;;;;3.67;29.51;101317.31;7792028;32;37978;-82
2024/01/09 17:00:56;;;;;;;21.48;11.57;;;;;;;3.39;32.33;101315.31;7792089;32;37178;-82
2024/01/09 17:05:12;;;;;;;26.20;11.90;;;;;;;3.31;33.42;101320.81;7791948;32;39753;-82
2024/01/09 17:09:30;;;;;;;21.17;10.77;;;;;;;3.20;34.04;101332.06;7791843;32;39645;-82
2024/01/09 17:13:46;;;;;;;22.73;12.88;;;;;;;3.15;34.29;101327.19;7791699;32;38776;-82
2024/01/09 17:18:03;;;;;;;17.48;8.32;;;;;;;2.92;34.03;101334.53;7787185;32;138500;-82
2024/01/09 17:22:19;;;;;;;18.10;8.20;;;;;;;2.96;33.43;101335.84;7791725;32;39311;-83
2024/01/09 17:26:35;;;;;;;17.05;9.15;;;;;;;2.75;33.50;101347.31;7791607;32;40859;-82
2024/01/09 17:30:52;;;;;;;22.05;11.00;;;;;;;2.82;34.04;101345.56;7795126;32;37844;-82
2024/01/09 17:35:09;;;;;;;21.15;10.95;;;;;;;2.65;34.98;101349.44;7804017;32;37256;-82
2024/01/09 17:39:25;;;;;;;16.87;8.48;;;;;;;2.58;35.42;101347.44;7798419;32;39535;-81
2024/01/09 17:43:41;;;;;;;18.37;9.23;;;;;;;2.40;35.82;101353.16;7797601;32;39821;-82
2024/01/09 17:47:57;;;;;;;16.05;8.75;;;;;;;2.40;36.52;101357.72;7803629;32;37835;-82
2024/01/09 17:52:14;;;;;;;17.55;7.80;;;;;;;2.41;35.42;101351.28;7803667;32;37110;-82
2024/01/09 17:56:36;;;;;;;14.50;7.72;;;;;;;2.15;35.46;101355.16;7803557;32;39253;-82
2024/01/09 18:00:53;;;;;;;16.67;8.27;;;;;;;2.06;34.75;101361.63;7801673;32;40897;-82
2024/01/09 18:05:11;;;;;;;14.45;8.25;;;;;;;1.86;34.23;101356.69;7804504;32;37513;-82
2024/01/09 18:09:29;;;;;;;13.77;7.60;;;;;;;2.05;33.38;101355.41;7791361;32;36244;-82
2024/01/09 18:13:45;;;;;;;21.25;8.07;;;;;;;2.19;33.19;101353.81;7781044;32;40148;-82
2024/01/09 18:18:03;;;;;;;16.23;9.10;;;;;;;1.82;34.62;101359.91;7767009;32;39866;-82
2024/01/09 18:22:19;;;;;;;17.40;8.05;;;;;;;1.73;35.11;101377.94;7774912;32;37786;-83
2024/01/09 18:26:37;;;;;;;22.42;11.00;;;;;;;1.50;36.18;101381.38;7801626;32;37095;-83
2024/01/09 18:31:09;;;;;;;22.95;14.40;;;;;;;1.69;36.21;101385.50;7801953;32;39267;-83
2024/01/09 18:35:26;;;;;;;19.70;11.60;;;;;;;1.66;39.29;101391.22;7803265;32;39778;-82
2024/01/09 18:39:46;;;;;;;24.23;11.25;;;;;;;1.67;39.19;101386.69;7806333;32;38856;-81
2024/01/09 18:44:04;;;;;;;19.98;9.65;;;;;;;1.80;39.28;101386.97;7801883;32;37469;-82
2024/01/09 18:48:21;;;;;;;10.20;6.85;;;;;;;1.70;39.08;101394.41;7801808;32;39309;-82
2024/01/09 18:52:37;;;;;;;13.35;7.43;;;;;;;1.30;37.53;101388.16;7802966;32;39608;-83
2024/01/09 18:56:53;;;;;;;15.55;7.12;;;;;;;1.38;35.07;101388.12;7802421;32;38792;-84
2024/01/09 19:01:09;;;;;;;9.25;5.95;;;;;;;1.42;34.50;101392.16;7803207;32;35852;-82
2024/01/09 19:05:26;;;;;;;12.30;6.60;;;;;;;1.41;34.38;101395.81;7805002;32;39357;-82
2024/01/09 19:09:46;;;;;;;12.65;6.53;;;;;;;1.57;33.72;101394.97;7805889;32;40882;-83
2024/01/09 19:14:02;;;;;;;13.73;8.00;;;;;;;1.27;34.07;101393.84;7805160;32;37773;-82
2024/01/09 19:18:19;;;;;;;15.05;7.35;;;;;;;1.46;32.45;101395.31;7805502;32;36963;-81
2024/01/09 19:22:36;;;;;;;14.00;8.07;;;;;;;1.22;33.66;101396.22;7796187;32;39469;-81
2024/01/09 19:26:52;;;;;;;18.85;8.65;;;;;;;1.11;34.40;101392.87;7791537;32;39988;-82
2024/01/09 19:31:08;;;;;;;24.45;13.73;;;;;;;1.25;33.53;101401.25;7782231;32;37889;-81
2024/01/09 19:35:28;;;;;;;16.02;9.88;;;;;;;1.30;34.13;101409.66;7765705;32;37732;-81
2024/01/09 19:39:44;;;;;;;18.37;10.60;;;;;;;1.38;36.94;101406.09;7765722;32;39521;-81
2024/01/09 19:44:00;;;;;;;13.62;7.78;;;;;;;1.29;36.58;101407.97;7774951;32;40762;-82
2024/01/09 19:48:17;;;;;;;11.43;6.95;;;;;;;1.09;36.09;101407.50;7765481;32;37973;-81
2024/01/09 19:52:36;;;;;;;11.85;7.00;;;;;;;0.70;35.87;101409.00;7765279;32;37896;-81
2024/01/09 19:56:53;;;;;;;11.38;6.87;;;;;;;0.96;34.34;101405.31;7765593;32;39793;-80
2024/01/09 20:01:09;;;;;;;11.23;6.93;;;;;;;0.99;33.55;101410.34;7765378;32;40585;-82
2024/01/09 20:05:26;;;;;;;13.40;7.50;;;;;;;0.78;33.66;101410.00;7790503;32;37819;-81